Chesterfield, NH

9:21 PM EDT on August 22, 2014 (GMT -0400)
NHDOT Westmoreland NH-9 | Change Station
CLOSE
Current Station
Personal Weather Station
Location: Spofford, NH
Elevation: 1145 ft
Nearby Weather Stations

Elev 1145 ft 42.93 °N, 72.37 °W | Updated 1 day ago

Rain
Rain
60 °F
Feels Like 60 °F
N
1
Wind Variable Wind from East
Gusts 8 mph

Today
High -- | Low -- °F
--% Chance of Precip.
Yesterday
High -- | Low -- °F
Precip. -- in
6:03 AM 7:40 PM
Waning Crescent, 6% visible
Pressure 30.13 in
Visibility 10.0 miles
Clouds Mostly Cloudy 4200 ft
Dew Point 58 °F
Humidity 92%
Rainfall -9999.00 in
Snow Depth Not available.
UV 0 out of 12
Pollen 4.00 out of 12
Ozone Good
PM2.5 Good
Flu Activity Not available.
METAR KEEN 230115Z AUTO 02004KT 10SM BKN042 17/14 A3013 RMK AO1

More Conditions Fewer Conditions

Pressure 30.13 in
Visibility 10.0 miles
Clouds Mostly Cloudy 4200 ft
Dew Point 58 °F
Humidity 92%
Rainfall -9999.00 in
Snow Depth Not available.
UV 0 out of 12
Pollen 4.00 out of 12
Ozone Good
PM2.5 Good
Flu Activity Not available.
METAR KEEN 230115Z AUTO 02004KT 10SM BKN042 17/14 A3013 RMK AO1

More Conditions Fewer Conditions

10-Day Weather Forecast

Almanac

Astronomy

Aug. 22, 2014 Rise Set
Actual Time 6:03 AM EDT 7:40 PM EDT
Civil Twilight 5:33 AM EDT 8:10 PM EDT
Nautical Twilight 4:56 AM EDT 8:46 PM EDT
Astronomical Twilight 4:17 AM EDT 9:25 PM EDT
Moon 3:21 AM EDT (8/22) 5:48 PM EDT (8/22)
Length of Visible Light 14h 37m
Length of Day
13h 37m
Tomorrow will be 2m 41s shorter.
Waning Crescent, 6% of the Moon is Illuminated
Today
Waning Crescent
Aug 25
New
Sep 2
First Quarter
Sep 8
Full
Sep 15
Last Quarter

Today's Extremes

State Highs State Lows

Community

WunderPhotos

Upload Photos

1,746,337 photos uploaded!

WunderBlogs® & News

Nearby

Air Quality

  Air Quality AQ Index Pollutant
Yesterday Good
OZONE
Yesterday Good
PM2.5
Current Good
OZONE
Current Good
PM2.5
Friday Good
PM2.5
Friday Good
OZONE
Saturday Good
PM2.5
Saturday Good
OZONE
Sunday Good
PM2.5
Sunday Good
OZONE
Monday Good
PM2.5
Monday Good
OZONE

Snow Depth

Station Depth Elevation
No new snow has been reported.

Earthquake Activity

City Distance Mag. Time & Date
No recent earthquake activity has been reported nearby.
Minimum magnitude displayed is 2.5.

Coastal Water Temperatures

Place Temperature
No Stations Reporting

Nearby Weather Stations